Airfield :
LOGIN :

Register | Disclaimer

   EN    FR    IT 

 










Legend :    VFR   Marginal VFR   IFR   Intensive IFR   Very Intensive IFR
Visi :
Ceiling :
>= 8 km
>= 3000ft
5 to 8 km
1000 to 3000 ft
1500m to 5 km
500 to 1000 ft
800 to 1500m
200 to 500 ft
< 800m
< 200 ft
Symbols :   Thunderstorms  Fog  Heavy snow  Heavy precipitations  Wind > 20 kt
SIGMETs :     Misc.  Thunderstorms  Icing  Turbulence  Mountain Waves  Volcanic Ashes






- Airport Elevation : 160 ft
- IATA code : LRT


LFRH - Lorient Lann Bihoue

CURRENT METAR :
  • 141430Z AUTO 25012KT CAVOK 14/10 Q1024 NOSIG

EXPIRED METARs :
  • 141400Z AUTO 25011KT CAVOK 15/10 Q1024 NOSIG
  • 141330Z AUTO 25010KT CAVOK 15/11 Q1024 NOSIG
  • 141300Z AUTO 24010KT 210V270 CAVOK 15/11 Q1024 NOSIG
  • 141230Z AUTO 23010KT CAVOK 15/11 Q1025 NOSIG
  • 141200Z AUTO 23008KT CAVOK 16/11 Q1025 NOSIG
  • 141130Z AUTO 25005KT 210V290 CAVOK 16/11 Q1025 NOSIG
  • 141100Z AUTO VRB01KT 9999 FEW024 16/10 Q1025 NOSIG
  • 141030Z AUTO VRB03KT 9999 FEW021 15/10 Q1025 NOSIG
  • 141000Z AUTO VRB04KT CAVOK 15/10 Q1026 TEMPO OVC010

TAF TAF LFRH
Valid from the 14 at 12:00 until the 15 at 12:00 UTC


141100Z 1412/1512 VRB04KT 9999 SCT020
BECMG 1412/1414 26010KT
BECMG 1418/1420 34010KT
BECMG 1500/1502 26005KT
BECMG 1505/1508 26015G30KT
PROB40
TEMPO 1511/1512 -RA BKN014



MET'MAP, your aeronautical weather chart ! - Copyright ORBIFLY December 2007 - Disclaimer

ORBIFLY MET'MAP TEAM :

Programming & Development : Alexandra Zaïnal
Original concept : Baudouin d'Aumeries
Technical & hardware support : Manuel Goepfert
Assistance : Marc-Olivier Méhu




SOURCES & CREDITS :

   NOAA